createdAt,value
2022-12-17T00:00:29.145Z,101185.28
2022-12-17T00:03:16.236Z,101184.34
2022-12-17T00:06:18.346Z,101181.75
2022-12-17T00:09:03.934Z,101184.25
2022-12-17T00:11:49.973Z,101179.09
2022-12-17T00:14:35.824Z,101178.22
2022-12-17T00:17:21.677Z,101173.03
2022-12-17T00:20:07.253Z,101178.94
2022-12-17T00:22:54.637Z,101178.06
2022-12-17T00:25:40.301Z,101164.38
2022-12-17T00:28:28.921Z,101173.69
2022-12-17T00:31:17.062Z,101171.97
2022-12-17T00:34:03.367Z,101179.56
2022-12-17T00:36:51.033Z,101171.91
2022-12-17T00:39:39.230Z,101172.75
2022-12-17T00:42:25.004Z,101167.63
2022-12-17T00:45:12.021Z,101174.44
2022-12-17T00:47:57.552Z,101165.91
2022-12-17T00:50:54.745Z,101157.44
2022-12-17T00:53:42.936Z,101162.56
2022-12-17T00:56:30.107Z,101157.44
2022-12-17T00:59:16.108Z,101157.44
2022-12-17T01:02:02.171Z,101155.72
2022-12-17T01:04:47.815Z,101151.47
2022-12-17T01:07:33.581Z,101152.31
2022-12-17T01:10:19.560Z,101151.44
2022-12-17T01:13:06.640Z,101147.19
2022-12-17T01:15:52.388Z,101147.16
2022-12-17T01:18:39.580Z,101148.03
2022-12-17T01:21:25.836Z,101152.25
2022-12-17T01:24:11.833Z,101163.31
2022-12-17T01:26:57.635Z,101156.47
2022-12-17T01:29:45.001Z,101157.31
2022-12-17T01:32:30.742Z,101154.75
2022-12-17T01:35:16.533Z,101151.34
2022-12-17T01:38:01.853Z,101152.16
2022-12-17T01:40:47.620Z,101149.56
2022-12-17T01:43:33.772Z,101152.09
2022-12-17T01:46:21.282Z,101152.97
2022-12-17T01:49:07.425Z,101156.38
2022-12-17T01:51:54.780Z,101150.44
2022-12-17T01:54:42.869Z,101142.78
2022-12-17T01:57:29.812Z,101146.16
2022-12-17T02:00:20.347Z,101156.34
2022-12-17T02:03:07.691Z,101154.59
2022-12-17T02:06:02.094Z,101154.56
2022-12-17T02:08:57.502Z,101163.88
2022-12-17T02:11:52.362Z,101154.44
2022-12-17T02:14:42.118Z,101156.03
2022-12-17T02:17:33.567Z,101156.00
2022-12-17T02:20:32.804Z,101167.00
2022-12-17T02:23:30.641Z,101165.25
2022-12-17T02:26:21.218Z,101168.63
2022-12-17T02:29:10.886Z,101179.63
2022-12-17T02:32:03.270Z,101187.28
2022-12-17T02:34:49.396Z,101188.97
2022-12-17T02:37:35.002Z,101191.44
2022-12-17T02:40:21.895Z,101187.16
2022-12-17T02:43:08.372Z,101193.88
2022-12-17T02:45:58.482Z,101192.16
2022-12-17T02:48:44.765Z,101195.47
2022-12-17T02:51:30.738Z,101197.09
2022-12-17T02:54:22.071Z,101194.53
2022-12-17T02:57:04.169Z,101196.44
2022-12-17T02:59:50.158Z,101191.50
2022-12-17T03:02:37.493Z,101193.34
2022-12-17T03:08:36.165Z,101180.16
2022-12-17T03:11:22.113Z,101188.81
2022-12-17T03:14:07.686Z,101188.94
2022-12-17T03:16:53.197Z,101195.03
2022-12-17T03:19:40.598Z,101196.84
2022-12-17T03:22:26.492Z,101197.78
2022-12-17T03:25:12.343Z,101197.91
2022-12-17T03:27:58.124Z,101200.50
2022-12-17T03:30:48.623Z,101200.53
2022-12-17T03:33:35.475Z,101192.94
2022-12-17T03:36:23.064Z,101192.13
2022-12-17T03:39:08.672Z,101189.66
2022-12-17T03:41:54.308Z,101189.69
2022-12-17T03:44:39.220Z,101189.72
2022-12-17T03:47:24.860Z,101197.44
2022-12-17T03:50:10.752Z,101194.09
2022-12-17T03:52:57.793Z,101201.78
2022-12-17T03:55:43.640Z,101200.94
2022-12-17T03:58:29.635Z,101209.50
2022-12-17T04:01:15.751Z,101201.88
2022-12-17T04:04:12.806Z,101198.53
2022-12-17T04:06:58.526Z,101196.03
2022-12-17T04:09:45.849Z,101197.75
2022-12-17T04:12:31.494Z,101202.00
2022-12-17T04:15:17.204Z,101203.59
2022-12-17T04:18:03.182Z,101191.63
2022-12-17T04:20:48.922Z,101195.03
2022-12-17T04:23:35.080Z,101194.19
2022-12-17T04:26:23.340Z,101195.88
2022-12-17T04:29:09.399Z,101192.44
2022-12-17T04:31:55.112Z,101197.53
2022-12-17T04:34:40.920Z,101183.09
2022-12-17T04:37:26.760Z,101188.22
2022-12-17T04:40:20.850Z,101183.09
2022-12-17T04:43:07.902Z,101183.06
2022-12-17T04:45:53.774Z,101183.03
2022-12-17T04:48:42.617Z,101177.88
2022-12-17T04:51:28.365Z,101186.31
2022-12-17T04:54:19.549Z,101183.63
2022-12-17T04:57:05.171Z,101185.31
2022-12-17T04:59:51.263Z,101174.28
2022-12-17T05:02:42.348Z,101175.97
2022-12-17T05:05:34.090Z,101174.28
2022-12-17T05:08:19.796Z,101175.13
2022-12-17T05:11:05.665Z,101181.16
2022-12-17T05:13:51.257Z,101182.00
2022-12-17T05:16:38.185Z,101180.22
2022-12-17T05:19:23.899Z,101179.31
2022-12-17T05:22:09.765Z,101175.84
2022-12-17T05:24:56.292Z,101173.25
2022-12-17T05:27:41.891Z,101170.69
2022-12-17T05:30:28.378Z,101175.75
2022-12-17T05:33:19.673Z,101179.13
2022-12-17T05:36:11.451Z,101189.28
2022-12-17T05:38:57.205Z,101191.00
2022-12-17T05:41:43.087Z,101184.22
2022-12-17T05:44:28.537Z,101173.19
2022-12-17T05:47:14.424Z,101184.25
2022-12-17T05:50:01.373Z,101185.09
2022-12-17T05:52:47.147Z,101181.72
2022-12-17T05:55:32.749Z,101171.47
2022-12-17T05:58:21.912Z,101184.25
2022-12-17T06:01:07.491Z,101184.19
2022-12-17T06:03:53.674Z,101189.28
2022-12-17T06:06:40.794Z,101182.50
2022-12-17T06:09:26.510Z,101194.34
2022-12-17T06:12:12.375Z,101201.06
2022-12-17T06:14:57.843Z,101205.25
2022-12-17T06:17:43.567Z,101204.44
2022-12-17T06:20:29.965Z,101209.41
2022-12-17T06:23:20.722Z,101212.78
2022-12-17T06:26:06.506Z,101216.09
2022-12-17T06:28:52.080Z,101220.34
2022-12-17T06:31:40.069Z,101205.88
2022-12-17T06:34:26.292Z,101213.50
2022-12-17T06:37:11.924Z,101211.75
2022-12-17T06:39:59.320Z,101204.91
2022-12-17T06:42:45.397Z,101208.34
2022-12-17T06:45:39.477Z,101201.59
2022-12-17T06:48:27.536Z,101202.47
2022-12-17T06:51:13.812Z,101198.22
2022-12-17T06:54:00.498Z,101199.97
2022-12-17T06:56:47.570Z,101202.53
2022-12-17T06:59:32.392Z,101199.09
2022-12-17T07:02:18.613Z,101200.78
2022-12-17T07:05:04.529Z,101194.81
2022-12-17T07:07:50.230Z,101187.13
2022-12-17T07:10:36.940Z,101189.63
2022-12-17T07:13:25.555Z,101199.00
2022-12-17T07:16:12.232Z,101192.22
2022-12-17T07:18:57.956Z,101187.94
2022-12-17T07:21:43.987Z,101175.16
2022-12-17T07:24:30.263Z,101178.56
2022-12-17T07:27:16.306Z,101182.91
2022-12-17T07:30:03.354Z,101176.88
2022-12-17T07:32:49.616Z,101169.22
2022-12-17T07:35:35.325Z,101171.81
2022-12-17T07:38:23.025Z,101171.81
2022-12-17T07:41:09.072Z,101175.97
2022-12-17T07:43:54.766Z,101178.53
2022-12-17T07:46:41.763Z,101180.97
2022-12-17T07:49:27.608Z,101180.09
2022-12-17T07:52:22.898Z,101178.38
2022-12-17T07:55:18.432Z,101187.69
2022-12-17T07:58:04.905Z,101194.44
2022-12-17T08:00:50.938Z,101190.19
2022-12-17T08:03:38.869Z,101185.94
2022-12-17T08:06:25.170Z,101186.78
2022-12-17T08:09:11.161Z,101187.66
2022-12-17T08:11:56.909Z,101176.66
2022-12-17T08:14:42.713Z,101177.53
2022-12-17T08:17:28.220Z,101170.81
2022-12-17T08:20:30.051Z,101171.75
2022-12-17T08:23:20.891Z,101180.28
2022-12-17T08:26:09.010Z,101178.72
2022-12-17T08:28:55.536Z,101170.25
2022-12-17T08:31:42.624Z,101185.59
2022-12-17T08:34:28.833Z,101180.56
2022-12-17T08:37:16.019Z,101191.69
2022-12-17T08:40:01.812Z,101197.78
2022-12-17T08:42:47.589Z,101199.56
2022-12-17T08:45:33.270Z,101204.72
2022-12-17T08:48:23.289Z,101203.84
2022-12-17T08:51:09.491Z,101222.63
2022-12-17T08:54:01.764Z,101203.03
2022-12-17T08:56:47.528Z,101201.31
2022-12-17T08:59:33.657Z,101203.84
2022-12-17T09:02:19.564Z,101204.72
2022-12-17T09:05:05.135Z,101209.81
2022-12-17T09:07:50.901Z,101217.63
2022-12-17T09:10:52.606Z,101212.03
2022-12-17T09:13:38.508Z,101212.72
2022-12-17T09:16:25.425Z,101207.94
2022-12-17T09:19:11.210Z,101218.53
2022-12-17T09:21:57.044Z,101214.38
2022-12-17T09:24:43.126Z,101211.50
2022-12-17T09:27:32.473Z,101215.63
2022-12-17T09:30:18.182Z,101212.53
2022-12-17T09:33:03.904Z,101201.91
2022-12-17T09:35:50.080Z,101199.63
2022-12-17T09:38:36.310Z,101185.00
2022-12-17T09:41:43.989Z,101188.53
2022-12-17T09:44:41.038Z,101187.59
2022-12-17T09:47:39.943Z,101174.38
2022-12-17T09:50:31.110Z,101181.72
2022-12-17T09:53:19.320Z,101184.63
2022-12-17T09:56:08.318Z,101176.84
2022-12-17T09:59:08.470Z,101182.66
2022-12-17T10:01:55.026Z,101197.41
2022-12-17T10:04:48.899Z,101207.81
2022-12-17T10:07:38.913Z,101218.97
2022-12-17T10:10:35.981Z,101221.50
2022-12-17T10:13:29.315Z,101223.03
2022-12-17T10:16:15.350Z,101226.34
2022-12-17T10:18:59.303Z,101226.38
2022-12-17T10:21:46.635Z,101229.69
2022-12-17T10:24:32.521Z,101231.22
2022-12-17T10:27:18.655Z,101230.28
2022-12-17T10:30:06.067Z,101212.81
2022-12-17T10:33:06.903Z,101216.16
2022-12-17T10:35:56.930Z,101221.44
2022-12-17T10:38:45.287Z,101234.44
2022-12-17T10:41:39.694Z,101230.38
2022-12-17T10:44:42.524Z,101229.66
2022-12-17T10:47:47.369Z,101226.44
2022-12-17T10:50:35.348Z,101221.63
2022-12-17T10:53:34.657Z,101225.19
2022-12-17T10:56:20.740Z,101221.78
2022-12-17T10:59:15.016Z,101212.38
2022-12-17T11:02:01.198Z,101218.38
2022-12-17T11:04:48.368Z,101219.19
2022-12-17T11:07:39.717Z,101221.72
2022-12-17T11:10:34.514Z,101213.97
2022-12-17T11:13:24.913Z,101211.34
2022-12-17T11:16:14.981Z,101214.75
2022-12-17T11:19:09.214Z,101216.47
2022-12-17T11:22:01.553Z,101226.63
2022-12-17T11:24:56.629Z,101226.66
2022-12-17T11:27:48.015Z,101229.28
2022-12-17T11:30:35.926Z,101237.00
2022-12-17T11:33:31.623Z,101237.03
2022-12-17T11:36:42.742Z,101230.19
2022-12-17T11:39:36.016Z,101219.88
2022-12-17T11:42:32.977Z,101214.69
2022-12-17T11:45:27.047Z,101215.56
2022-12-17T11:48:18.446Z,101207.88
2022-12-17T11:51:09.740Z,101204.50
2022-12-17T11:54:10.686Z,101207.97
2022-12-17T11:57:01.935Z,101197.69
2022-12-17T11:59:55.156Z,101188.28
2022-12-17T12:03:04.075Z,101162.59
2022-12-17T12:05:59.693Z,101154.06
2022-12-17T12:08:47.955Z,101150.63
2022-12-17T12:11:45.952Z,101151.47
2022-12-17T12:14:43.647Z,101150.59
2022-12-17T12:17:49.718Z,101159.16
2022-12-17T12:20:48.956Z,101154.03
2022-12-17T12:23:42.120Z,101147.22
2022-12-17T12:26:34.009Z,101136.13
2022-12-17T12:29:31.357Z,101129.28
2022-12-17T12:32:25.696Z,101121.63
2022-12-17T12:35:13.449Z,101112.19
2022-12-17T12:38:00.791Z,101090.84
2022-12-17T12:40:53.974Z,101102.78
2022-12-17T12:43:42.672Z,101096.81
2022-12-17T12:46:35.619Z,101095.94
2022-12-17T12:49:24.410Z,101100.16
2022-12-17T12:52:13.628Z,101084.78
2022-12-17T12:55:11.961Z,101091.66
2022-12-17T12:58:01.099Z,101107.03
2022-12-17T13:00:56.794Z,101099.34
2022-12-17T13:04:01.155Z,101101.06
2022-12-17T13:06:50.810Z,101087.41
2022-12-17T13:09:35.443Z,101083.16
2022-12-17T13:12:30.257Z,101083.16
2022-12-17T13:15:17.455Z,101089.19
2022-12-17T13:17:56.378Z,101072.06
2022-12-17T13:20:29.953Z,101072.03
2022-12-17T13:23:32.923Z,101078.91
2022-12-17T13:26:17.138Z,101058.34
2022-12-17T13:29:11.696Z,101057.50
2022-12-17T13:31:54.016Z,101053.19
2022-12-17T13:34:30.831Z,101041.25
2022-12-17T13:37:06.800Z,101042.97
2022-12-17T13:39:43.706Z,101032.72
2022-12-17T13:42:28.828Z,101033.59
2022-12-17T13:44:59.940Z,101026.75
2022-12-17T13:47:31.764Z,101015.63
2022-12-17T13:52:50.590Z,101019.91
2022-12-17T13:55:22.551Z,101029.31
2022-12-17T13:57:52.747Z,101021.59
2022-12-17T14:00:25.993Z,101035.28
2022-12-17T14:02:54.852Z,101026.72
2022-12-17T14:05:26.674Z,101042.16
2022-12-17T14:07:56.094Z,101030.16
2022-12-17T14:10:26.490Z,101034.41
2022-12-17T14:13:02.659Z,101037.84
2022-12-17T14:15:33.454Z,101033.56
2022-12-17T14:18:03.738Z,101026.75
2022-12-17T14:20:35.569Z,101031.00
2022-12-17T14:23:06.853Z,101032.72
2022-12-17T14:25:38.107Z,101021.63
2022-12-17T14:28:08.132Z,101016.47
2022-12-17T14:31:02.524Z,101025.88
2022-12-17T14:33:31.240Z,101029.31
2022-12-17T14:36:01.835Z,101025.88
2022-12-17T14:38:38.353Z,101031.88
2022-12-17T14:41:26.802Z,101036.13
2022-12-17T14:44:00.728Z,101035.25
2022-12-17T14:46:32.496Z,101043.81
2022-12-17T14:49:02.907Z,101049.78
2022-12-17T14:51:34.581Z,101055.75
2022-12-17T14:54:30.928Z,101041.19
2022-12-17T14:57:01.139Z,101048.03
2022-12-17T14:59:34.113Z,101055.75
2022-12-17T15:02:15.255Z,101061.72
2022-12-17T15:04:43.720Z,101054.00
2022-12-17T15:07:18.900Z,101048.91
2022-12-17T15:09:47.200Z,101051.47
2022-12-17T15:12:15.494Z,101054.03
2022-12-17T15:14:44.428Z,101057.44
2022-12-17T15:17:14.470Z,101053.16
2022-12-17T15:19:43.203Z,101054.84
2022-12-17T15:22:16.765Z,101058.25
2022-12-17T15:24:46.635Z,101047.97
2022-12-17T15:27:16.359Z,101047.09
2022-12-17T15:29:46.591Z,101047.09
2022-12-17T15:32:20.130Z,101042.03
2022-12-17T15:34:48.855Z,101043.72
2022-12-17T15:37:23.951Z,101043.72
2022-12-17T15:39:54.379Z,101036.03
2022-12-17T15:42:40.555Z,101040.28
2022-12-17T15:45:10.244Z,101041.97
2022-12-17T15:47:41.583Z,101041.94
2022-12-17T15:50:10.855Z,101034.22
2022-12-17T15:52:39.136Z,101033.34
2022-12-17T15:55:08.252Z,101029.94
2022-12-17T15:57:36.616Z,101032.50
2022-12-17T16:00:05.725Z,101028.22
2022-12-17T16:02:34.435Z,101023.09
2022-12-17T16:05:04.910Z,101029.94
2022-12-17T16:07:33.486Z,101031.66
2022-12-17T16:10:05.368Z,101029.94
2022-12-17T16:12:34.408Z,101034.22
2022-12-17T16:15:02.903Z,101037.59
2022-12-17T16:17:31.390Z,101035.88
2022-12-17T16:20:01.299Z,101031.56
2022-12-17T16:22:31.173Z,101041.81
2022-12-17T16:24:59.779Z,101049.47
2022-12-17T16:27:29.478Z,101040.00
2022-12-17T16:29:57.797Z,101035.66
2022-12-17T16:32:28.357Z,101018.56
2022-12-17T16:34:59.879Z,101019.34
2022-12-17T16:37:30.644Z,101032.19
2022-12-17T16:40:00.316Z,101038.16
2022-12-17T16:42:29.067Z,101033.88
2022-12-17T16:44:57.395Z,101032.97
2022-12-17T16:47:25.998Z,101023.59
2022-12-17T16:49:54.356Z,101028.72
2022-12-17T16:52:23.047Z,101019.38
2022-12-17T16:54:54.006Z,101019.34
2022-12-17T16:57:22.347Z,101010.88
2022-12-17T16:59:51.133Z,101013.47
2022-12-17T17:02:19.498Z,101026.25
2022-12-17T17:04:48.162Z,101019.41
2022-12-17T17:07:17.199Z,101029.69
2022-12-17T17:09:46.196Z,101031.38
2022-12-17T17:12:15.875Z,101033.09
2022-12-17T17:14:44.414Z,101031.41
2022-12-17T17:17:13.009Z,101019.44
2022-12-17T17:19:41.540Z,101010.94
2022-12-17T17:22:09.861Z,101002.38
2022-12-17T17:24:38.575Z,100996.41
2022-12-17T17:27:06.907Z,100987.03
2022-12-17T17:29:37.159Z,100993.78
2022-12-17T17:32:13.206Z,100994.63
2022-12-17T17:34:42.411Z,100981.00
2022-12-17T17:37:10.733Z,100986.88
2022-12-17T17:39:39.257Z,100988.59
2022-12-17T17:42:08.057Z,100991.09
2022-12-17T17:44:39.160Z,100986.00
2022-12-17T17:47:07.938Z,100983.41
2022-12-17T17:49:36.291Z,100999.56
2022-12-17T17:52:09.883Z,100994.47
2022-12-17T17:54:40.368Z,100991.03
2022-12-17T17:57:09.739Z,100999.50
2022-12-17T17:59:40.837Z,100996.97
2022-12-17T18:02:11.306Z,100997.81
2022-12-17T18:04:40.074Z,101008.94
2022-12-17T18:07:24.620Z,101015.75
2022-12-17T18:09:55.942Z,101019.13
2022-12-17T18:12:43.338Z,101025.94
2022-12-17T18:15:16.273Z,101020.81
2022-12-17T18:17:46.444Z,101026.81
2022-12-17T18:20:15.237Z,101025.09
2022-12-17T18:22:46.158Z,101033.69
2022-12-17T18:25:15.606Z,101036.25
2022-12-17T18:27:44.731Z,101033.72
2022-12-17T18:30:17.082Z,101026.06
2022-12-17T18:32:45.426Z,101026.06
2022-12-17T18:35:14.047Z,101030.38
2022-12-17T18:37:42.769Z,101022.66
2022-12-17T18:40:12.337Z,101017.56
2022-12-17T18:42:58.875Z,101009.06
2022-12-17T18:45:28.627Z,101009.06
2022-12-17T18:47:57.215Z,101012.50
2022-12-17T18:50:26.319Z,101000.53
2022-12-17T18:52:54.641Z,100992.00
2022-12-17T18:55:23.733Z,100998.81
2022-12-17T18:57:52.385Z,100993.69
2022-12-17T19:00:20.845Z,101003.13
2022-12-17T19:02:50.620Z,101013.38
2022-12-17T19:05:19.233Z,101004.88
2022-12-17T19:07:47.542Z,101006.56
2022-12-17T19:10:16.213Z,101008.28
2022-12-17T19:12:44.537Z,101012.53
2022-12-17T19:15:13.195Z,101007.38
2022-12-17T19:17:41.510Z,101014.19
2022-12-17T19:20:13.082Z,101011.66
2022-12-17T19:22:42.726Z,101001.41
2022-12-17T19:25:11.612Z,100999.66
2022-12-17T19:27:40.218Z,100996.28
2022-12-17T19:30:10.028Z,100987.75
2022-12-17T19:32:38.352Z,100979.97
2022-12-17T19:35:07.168Z,100977.41
2022-12-17T19:37:38.186Z,100975.66
2022-12-17T19:40:07.540Z,100976.50
2022-12-17T19:42:37.727Z,100973.06
2022-12-17T19:45:07.208Z,100980.69
2022-12-17T19:47:35.545Z,100969.53
2022-12-17T19:50:03.900Z,100978.06
2022-12-17T19:52:32.978Z,100973.69
2022-12-17T19:55:03.135Z,100971.13
2022-12-17T19:57:31.855Z,100957.47
2022-12-17T20:00:00.193Z,100957.47
2022-12-17T20:02:32.740Z,100960.81
2022-12-17T20:05:01.870Z,100952.31
2022-12-17T20:07:30.196Z,100959.09
2022-12-17T20:09:58.752Z,100965.97
2022-12-17T20:12:28.885Z,100971.06
2022-12-17T20:14:57.199Z,100961.72
2022-12-17T20:17:26.891Z,100971.97
2022-12-17T20:19:58.029Z,100967.72
2022-12-17T20:22:26.882Z,100964.38
2022-12-17T20:24:55.613Z,100975.38
2022-12-17T20:27:24.136Z,100969.44
2022-12-17T20:29:54.499Z,100968.66
2022-12-17T20:32:22.862Z,100971.22
2022-12-17T20:34:51.720Z,100972.84
2022-12-17T20:37:20.014Z,100967.75
2022-12-17T20:39:48.338Z,100963.44
2022-12-17T20:42:17.966Z,100970.28
2022-12-17T20:44:51.600Z,100971.94
2022-12-17T20:47:23.127Z,100975.38
2022-12-17T20:49:51.731Z,100956.56
2022-12-17T20:52:20.354Z,100959.94
2022-12-17T20:54:49.482Z,100961.59
2022-12-17T20:57:18.571Z,100962.53
2022-12-17T20:59:48.652Z,100945.53
2022-12-17T21:02:17.466Z,100948.88
2022-12-17T21:04:47.270Z,100949.75
2022-12-17T21:07:15.904Z,100956.56
2022-12-17T21:09:44.239Z,100963.34
2022-12-17T21:12:13.738Z,100955.69
2022-12-17T21:14:42.521Z,100950.56
2022-12-17T21:17:11.496Z,100951.41
2022-12-17T21:19:41.118Z,100947.13
2022-12-17T21:22:11.337Z,100938.59
2022-12-17T21:24:41.175Z,100939.44
2022-12-17T21:27:14.696Z,100942.00
2022-12-17T21:29:43.436Z,100932.63
2022-12-17T21:32:12.032Z,100927.56
2022-12-17T21:34:41.155Z,100927.53
2022-12-17T21:37:11.440Z,100928.38
2022-12-17T21:39:39.997Z,100929.25
2022-12-17T21:42:25.956Z,100922.44
2022-12-17T21:44:55.071Z,100905.41
2022-12-17T21:47:23.999Z,100910.59
2022-12-17T21:49:52.881Z,100899.50
2022-12-17T21:52:22.564Z,100904.63
2022-12-17T21:54:50.911Z,100916.56
2022-12-17T21:57:19.322Z,100912.28
2022-12-17T21:59:48.597Z,100912.25
2022-12-17T22:02:17.579Z,100900.25
2022-12-17T22:04:46.242Z,100901.06
2022-12-17T22:07:18.285Z,100911.34
2022-12-17T22:10:17.750Z,100896.84
2022-12-17T22:12:58.125Z,100895.16
2022-12-17T22:15:28.695Z,100897.72
2022-12-17T22:18:00.710Z,100894.22
2022-12-17T22:20:29.969Z,100894.22
2022-12-17T22:22:58.250Z,100887.41
2022-12-17T22:25:28.074Z,100886.50
2022-12-17T22:27:57.065Z,100870.34
2022-12-17T22:30:43.410Z,100877.22
2022-12-17T22:33:32.236Z,100876.31
2022-12-17T22:38:11.794Z,100866.94
2022-12-17T22:41:53.405Z,100869.53
2022-12-17T22:44:49.373Z,100864.47
2022-12-17T22:44:54.142Z,100849.91
2022-12-17T22:47:23.760Z,100850.75
2022-12-17T22:49:52.461Z,100843.16
2022-12-17T22:52:21.618Z,100839.75
2022-12-17T22:54:50.249Z,100839.78
2022-12-17T22:57:37.351Z,100839.78
2022-12-17T23:00:12.717Z,100834.72
2022-12-17T23:02:41.429Z,100829.56
2022-12-17T23:05:10.362Z,100824.47
2022-12-17T23:07:38.677Z,100816.81
2022-12-17T23:10:08.032Z,100804.88
2022-12-17T23:12:54.136Z,100818.53
2022-12-17T23:15:28.247Z,100807.50
2022-12-17T23:18:00.048Z,100810.03
2022-12-17T23:20:30.067Z,100805.75
2022-12-17T23:22:58.832Z,100806.63
2022-12-17T23:25:28.119Z,100808.38
2022-12-17T23:27:58.254Z,100813.50
2022-12-17T23:30:27.572Z,100804.97
2022-12-17T23:32:56.229Z,100804.13
2022-12-17T23:35:25.880Z,100794.78
2022-12-17T23:37:54.552Z,100784.59
2022-12-17T23:40:23.394Z,100787.13
2022-12-17T23:42:51.692Z,100780.34
2022-12-17T23:45:21.741Z,100787.13
2022-12-17T23:47:50.458Z,100788.84
2022-12-17T23:50:19.452Z,100763.31
2022-12-17T23:52:47.805Z,100760.75
2022-12-17T23:55:17.182Z,100760.81
2022-12-17T23:57:48.103Z,100759.97
